createdAt,value
2023-02-11T00:00:00.283Z,36.6
2023-02-11T00:01:06.571Z,38.2
2023-02-11T00:02:00.315Z,38.2
2023-02-11T00:03:00.405Z,38.2
2023-02-11T00:04:01.850Z,38.2
2023-02-11T00:05:00.363Z,38.2
2023-02-11T00:06:03.627Z,38.1
2023-02-11T00:07:00.327Z,38.1
2023-02-11T00:08:00.350Z,38.1
2023-02-11T00:09:00.780Z,38.1
2023-02-11T00:10:01.033Z,38.1
2023-02-11T00:11:00.756Z,39.6
2023-02-11T00:12:00.334Z,39.6
2023-02-11T00:13:00.424Z,39.6
2023-02-11T00:14:03.597Z,39.6
2023-02-11T00:15:00.383Z,39.6
2023-02-11T00:16:04.999Z,37.5
2023-02-11T00:17:00.313Z,37.5
2023-02-11T00:18:00.293Z,37.5
2023-02-11T00:19:02.139Z,37.5
2023-02-11T00:20:00.486Z,37.5
2023-02-11T00:21:04.304Z,40.7
2023-02-11T00:22:00.356Z,40.7
2023-02-11T00:23:00.282Z,40.7
2023-02-11T00:24:00.482Z,40.7
2023-02-11T00:25:00.311Z,40.7
2023-02-11T00:26:00.738Z,41.2
2023-02-11T00:27:00.359Z,41.2
2023-02-11T00:28:00.386Z,41.2
2023-02-11T00:29:01.484Z,41.2
2023-02-11T00:30:00.300Z,41.2
2023-02-11T00:31:00.486Z,42.6
2023-02-11T00:32:00.470Z,42.6
2023-02-11T00:33:00.412Z,42.6
2023-02-11T00:34:00.484Z,42.6
2023-02-11T00:35:00.283Z,42.6
2023-02-11T00:36:05.484Z,39.8
2023-02-11T00:37:00.484Z,39.8
2023-02-11T00:38:00.290Z,39.8
2023-02-11T00:39:00.346Z,39.8
2023-02-11T00:40:00.288Z,39.8
2023-02-11T00:41:00.413Z,39.9
2023-02-11T00:42:00.322Z,39.9
2023-02-11T00:43:00.319Z,39.9
2023-02-11T00:44:01.352Z,39.9
2023-02-11T00:45:00.753Z,39.9
2023-02-11T00:46:00.389Z,43.8
2023-02-11T00:47:00.282Z,43.8
2023-02-11T00:48:00.314Z,43.8
2023-02-11T00:49:00.300Z,43.8
2023-02-11T00:50:00.732Z,43.8
2023-02-11T00:51:01.092Z,43.5
2023-02-11T00:52:00.302Z,43.5
2023-02-11T00:53:00.294Z,43.5
2023-02-11T00:54:00.337Z,43.5
2023-02-11T00:55:00.280Z,43.5
2023-02-11T00:56:00.381Z,42.7
2023-02-11T00:57:00.397Z,42.7
2023-02-11T00:58:00.639Z,42.7
2023-02-11T00:59:00.278Z,42.7
2023-02-11T01:00:00.550Z,42.7
2023-02-11T01:01:00.825Z,40.8
2023-02-11T01:02:00.355Z,40.8
2023-02-11T01:03:00.296Z,40.8
2023-02-11T01:04:00.386Z,40.8
2023-02-11T01:05:00.368Z,40.8
2023-02-11T01:06:00.501Z,43.4
2023-02-11T01:07:00.395Z,43.4
2023-02-11T01:08:00.340Z,43.4
2023-02-11T01:09:00.306Z,43.4
2023-02-11T01:10:00.312Z,43.4
2023-02-11T01:11:05.570Z,43.4
2023-02-11T01:12:00.328Z,43.4
2023-02-11T01:13:00.317Z,43.4
2023-02-11T01:14:00.353Z,43.4
2023-02-11T01:15:00.284Z,43.4
2023-02-11T01:16:00.971Z,42.8
2023-02-11T01:17:00.334Z,42.8
2023-02-11T01:18:00.639Z,42.8
2023-02-11T01:19:00.292Z,42.8
2023-02-11T01:20:13.807Z,43.5
2023-02-11T01:21:00.295Z,43.5
2023-02-11T01:22:00.310Z,43.5
2023-02-11T01:23:00.298Z,43.5
2023-02-11T01:24:00.339Z,43.5
2023-02-11T01:25:00.281Z,43.5
2023-02-11T01:26:00.484Z,44.0
2023-02-11T01:27:00.327Z,44.0
2023-02-11T01:28:00.384Z,44.0
2023-02-11T01:29:00.318Z,44.0
2023-02-11T01:30:00.356Z,44.0
2023-02-11T01:31:01.950Z,39.3
2023-02-11T01:32:00.455Z,39.3
2023-02-11T01:33:00.294Z,39.3
2023-02-11T01:34:00.349Z,39.3
2023-02-11T01:35:00.359Z,39.3
2023-02-11T01:36:03.576Z,44.4
2023-02-11T01:37:00.299Z,44.4
2023-02-11T01:38:00.322Z,44.4
2023-02-11T01:39:00.303Z,44.4
2023-02-11T01:40:01.930Z,44.4
2023-02-11T01:41:03.251Z,44.4
2023-02-11T01:42:01.057Z,44.4
2023-02-11T01:43:00.314Z,44.4
2023-02-11T01:44:20.214Z,44.4
2023-02-11T01:45:01.077Z,44.4
2023-02-11T01:46:13.511Z,43.4
2023-02-11T01:47:00.533Z,43.4
2023-02-11T01:48:00.339Z,43.4
2023-02-11T01:49:05.985Z,43.4
2023-02-11T01:50:01.283Z,43.4
2023-02-11T01:51:06.864Z,42.0
2023-02-11T01:52:17.749Z,42.0
2023-02-11T01:53:00.428Z,42.0
2023-02-11T01:54:02.308Z,42.0
2023-02-11T01:55:05.393Z,40.2
2023-02-11T01:56:00.740Z,40.2
2023-02-11T01:57:02.226Z,40.2
2023-02-11T01:58:04.143Z,40.2
2023-02-11T01:59:05.230Z,40.2
2023-02-11T02:00:08.693Z,39.9
2023-02-11T02:01:03.681Z,39.9
2023-02-11T02:02:06.958Z,39.9
2023-02-11T02:03:13.377Z,39.9
2023-02-11T02:04:03.832Z,39.9
2023-02-11T02:05:07.607Z,40.7
2023-02-11T02:06:06.788Z,40.7
2023-02-11T02:07:07.298Z,40.7
2023-02-11T02:08:20.250Z,40.7
2023-02-11T02:09:05.686Z,40.7
2023-02-11T02:10:06.738Z,39.9
2023-02-11T02:11:00.674Z,39.9
2023-02-11T02:12:00.351Z,39.9
2023-02-11T02:13:00.419Z,39.9
2023-02-11T02:14:00.333Z,39.9
2023-02-11T02:15:20.193Z,38.8
2023-02-11T02:16:02.115Z,38.8
2023-02-11T02:17:00.321Z,38.8
2023-02-11T02:18:11.646Z,38.8
2023-02-11T02:19:20.235Z,38.8
2023-02-11T02:20:20.190Z,44.3
2023-02-11T02:21:10.259Z,44.3
2023-02-11T02:22:19.339Z,44.3
2023-02-11T02:23:16.007Z,44.3
2023-02-11T02:24:08.765Z,44.3
2023-02-11T02:25:15.070Z,40.6
2023-02-11T02:26:06.803Z,40.6
2023-02-11T02:27:11.249Z,40.6
2023-02-11T02:28:16.797Z,40.6
2023-02-11T02:29:20.189Z,40.6
2023-02-11T02:30:08.737Z,36.5
2023-02-11T02:31:11.370Z,36.5
2023-02-11T02:32:20.211Z,36.5
2023-02-11T02:33:22.924Z,36.5
2023-02-11T02:34:08.279Z,36.5
2023-02-11T02:35:02.314Z,37.7
2023-02-11T02:36:08.411Z,37.7
2023-02-11T02:37:10.016Z,37.7
2023-02-11T02:38:10.402Z,37.7
2023-02-11T02:39:07.971Z,37.7
2023-02-11T02:40:06.783Z,37.2
2023-02-11T02:41:08.680Z,37.2
2023-02-11T02:42:00.997Z,37.2
2023-02-11T02:43:01.802Z,37.2
2023-02-11T02:44:00.980Z,37.2
2023-02-11T02:45:00.386Z,35.9
2023-02-11T02:46:12.434Z,35.9
2023-02-11T02:47:00.431Z,35.9
2023-02-11T02:48:00.364Z,35.9
2023-02-11T02:49:00.536Z,35.9
2023-02-11T02:50:00.382Z,36.7
2023-02-11T02:51:10.274Z,36.7
2023-02-11T02:52:17.610Z,36.7
2023-02-11T02:53:20.199Z,36.7
2023-02-11T02:54:20.232Z,36.7
2023-02-11T02:55:18.793Z,38.1
2023-02-11T02:56:17.479Z,38.1
2023-02-11T02:57:01.282Z,38.1
2023-02-11T02:58:03.534Z,38.1
2023-02-11T02:59:20.221Z,38.1
2023-02-11T03:00:11.340Z,35.8
2023-02-11T03:01:18.447Z,35.8
2023-02-11T03:02:13.482Z,35.8
2023-02-11T03:03:11.245Z,35.8
2023-02-11T03:04:07.740Z,35.8
2023-02-11T03:05:10.162Z,36.9
2023-02-11T03:06:06.655Z,36.9
2023-02-11T03:07:11.699Z,36.9
2023-02-11T03:08:15.793Z,36.9
2023-02-11T03:09:09.694Z,36.9
2023-02-11T03:10:06.798Z,37.8
2023-02-11T03:11:02.234Z,37.8
2023-02-11T03:12:01.880Z,37.8
2023-02-11T03:13:02.082Z,37.8
2023-02-11T03:14:03.572Z,37.8
2023-02-11T03:15:04.530Z,37.0
2023-02-11T03:16:07.711Z,37.0
2023-02-11T03:17:03.446Z,37.0
2023-02-11T03:18:02.301Z,37.0
2023-02-11T03:19:07.265Z,37.0
2023-02-11T03:20:03.512Z,36.9
2023-02-11T03:21:04.046Z,36.9
2023-02-11T03:22:04.351Z,36.9
2023-02-11T03:23:07.455Z,36.9
2023-02-11T03:24:06.232Z,36.9
2023-02-11T03:25:01.359Z,38.6
2023-02-11T03:26:13.172Z,38.6
2023-02-11T03:27:06.581Z,38.6
2023-02-11T03:28:12.454Z,38.6
2023-02-11T03:29:15.700Z,38.6
2023-02-11T03:30:09.312Z,37.6
2023-02-11T03:31:16.782Z,37.6
2023-02-11T03:32:03.560Z,37.6
2023-02-11T03:33:07.589Z,37.6
2023-02-11T03:34:08.109Z,37.6
2023-02-11T03:35:12.571Z,39.0
2023-02-11T03:36:06.257Z,39.0
2023-02-11T03:37:08.769Z,39.0
2023-02-11T03:38:08.587Z,39.0
2023-02-11T03:39:02.671Z,39.0
2023-02-11T03:40:05.477Z,37.2
2023-02-11T03:41:03.620Z,37.2
2023-02-11T03:42:03.023Z,37.2
2023-02-11T03:43:08.986Z,37.2
2023-02-11T03:44:01.169Z,37.2
2023-02-11T03:45:11.175Z,40.1
2023-02-11T03:46:02.259Z,40.1
2023-02-11T03:47:02.623Z,40.1
2023-02-11T03:48:05.752Z,40.1
2023-02-11T03:49:05.844Z,40.1
2023-02-11T03:50:03.019Z,38.6
2023-02-11T03:51:04.050Z,38.6
2023-02-11T03:52:02.448Z,38.6
2023-02-11T03:53:02.453Z,38.6
2023-02-11T03:54:06.199Z,38.6
2023-02-11T03:55:03.791Z,39.9
2023-02-11T03:56:03.952Z,39.9
2023-02-11T03:57:01.592Z,39.9
2023-02-11T03:58:00.509Z,39.9
2023-02-11T03:59:00.537Z,39.9
2023-02-11T04:00:00.405Z,37.1
2023-02-11T04:01:00.398Z,37.1
2023-02-11T04:02:00.340Z,37.1
2023-02-11T04:03:00.368Z,37.1
2023-02-11T04:04:00.303Z,37.1
2023-02-11T04:05:00.607Z,39.4
2023-02-11T04:06:00.434Z,39.4
2023-02-11T04:07:00.288Z,39.4
2023-02-11T04:08:00.943Z,39.4
2023-02-11T04:09:00.420Z,39.4
2023-02-11T04:10:00.365Z,38.9
2023-02-11T04:11:00.322Z,38.9
2023-02-11T04:12:00.332Z,38.9
2023-02-11T04:13:00.343Z,38.9
2023-02-11T04:14:00.443Z,38.9
2023-02-11T04:15:00.314Z,37.1
2023-02-11T04:16:00.438Z,37.1
2023-02-11T04:17:00.349Z,37.1
2023-02-11T04:18:00.305Z,37.1
2023-02-11T04:19:00.312Z,37.1
2023-02-11T04:20:00.357Z,36.6
2023-02-11T04:21:00.401Z,36.6
2023-02-11T04:22:01.177Z,36.6
2023-02-11T04:23:00.494Z,36.6
2023-02-11T04:24:00.356Z,36.6
2023-02-11T04:25:00.301Z,38.8
2023-02-11T04:26:00.335Z,38.8
2023-02-11T04:27:00.676Z,38.8
2023-02-11T04:28:00.408Z,38.8
2023-02-11T04:29:00.299Z,38.8
2023-02-11T04:30:00.690Z,37.3
2023-02-11T04:31:00.412Z,37.3
2023-02-11T04:32:00.443Z,37.3
2023-02-11T04:33:00.311Z,37.3
2023-02-11T04:34:00.351Z,37.3
2023-02-11T04:35:00.371Z,37.0
2023-02-11T04:36:00.298Z,37.0
2023-02-11T04:37:00.302Z,37.0
2023-02-11T04:38:00.307Z,37.0
2023-02-11T04:39:00.290Z,37.0
2023-02-11T04:40:00.588Z,38.5
2023-02-11T04:41:00.300Z,38.5
2023-02-11T04:42:00.538Z,38.5
2023-02-11T04:43:00.303Z,38.5
2023-02-11T04:44:00.316Z,38.5
2023-02-11T04:45:00.316Z,36.5
2023-02-11T04:46:00.432Z,36.5
2023-02-11T04:47:00.332Z,36.5
2023-02-11T04:48:01.598Z,36.5
2023-02-11T04:49:00.335Z,36.5
2023-02-11T04:50:00.283Z,35.1
2023-02-11T04:51:00.642Z,35.1
2023-02-11T04:52:00.328Z,35.1
2023-02-11T04:53:00.340Z,35.1
2023-02-11T04:54:00.306Z,35.1
2023-02-11T04:55:00.324Z,33.6
2023-02-11T04:56:00.343Z,33.6
2023-02-11T04:57:00.423Z,33.6
2023-02-11T04:58:00.330Z,33.6
2023-02-11T04:59:00.374Z,33.6
2023-02-11T05:00:00.329Z,34.1
2023-02-11T05:01:09.115Z,34.1
2023-02-11T05:02:00.401Z,34.1
2023-02-11T05:03:00.337Z,34.1
2023-02-11T05:04:00.414Z,34.1
2023-02-11T05:05:00.544Z,34.9
2023-02-11T05:06:00.464Z,34.9
2023-02-11T05:07:00.354Z,34.9
2023-02-11T05:08:00.311Z,34.9
2023-02-11T05:09:00.410Z,34.9
2023-02-11T05:10:00.316Z,36.3
2023-02-11T05:11:00.338Z,36.3
2023-02-11T05:12:00.331Z,36.3
2023-02-11T05:13:00.591Z,36.3
2023-02-11T05:14:00.316Z,36.3
2023-02-11T05:15:00.436Z,33.4
2023-02-11T05:16:00.325Z,33.4
2023-02-11T05:17:00.490Z,33.4
2023-02-11T05:18:00.324Z,33.4
2023-02-11T05:19:00.363Z,33.4
2023-02-11T05:20:00.309Z,34.9
2023-02-11T05:21:05.313Z,34.9
2023-02-11T05:22:02.995Z,34.9
2023-02-11T05:23:00.287Z,34.9
2023-02-11T05:24:00.294Z,34.9
2023-02-11T05:25:00.275Z,34.8
2023-02-11T05:26:00.300Z,34.8
2023-02-11T05:27:00.944Z,34.8
2023-02-11T05:28:00.388Z,34.8
2023-02-11T05:29:00.376Z,34.8
2023-02-11T05:30:00.330Z,35.2
2023-02-11T05:31:00.793Z,35.2
2023-02-11T05:32:00.360Z,35.2
2023-02-11T05:33:00.300Z,35.2
2023-02-11T05:34:00.314Z,35.2
2023-02-11T05:35:00.303Z,35.3
2023-02-11T05:36:03.331Z,35.3
2023-02-11T05:37:00.473Z,35.3
2023-02-11T05:38:00.296Z,35.3
2023-02-11T05:39:00.411Z,35.3
2023-02-11T05:40:00.297Z,33.4
2023-02-11T05:41:01.058Z,33.4
2023-02-11T05:42:00.318Z,33.4
2023-02-11T05:43:00.468Z,33.4
2023-02-11T05:44:00.318Z,33.4
2023-02-11T05:45:00.361Z,35.2
2023-02-11T05:46:00.586Z,35.2
2023-02-11T05:47:00.318Z,35.2
2023-02-11T05:48:00.308Z,35.2
2023-02-11T05:49:00.353Z,35.2
2023-02-11T05:50:00.299Z,32.9
2023-02-11T05:51:00.316Z,32.9
2023-02-11T05:52:00.480Z,32.9
2023-02-11T05:53:00.351Z,32.9
2023-02-11T05:54:00.285Z,32.9
2023-02-11T05:55:00.284Z,33.6
2023-02-11T05:56:00.721Z,33.6
2023-02-11T05:57:00.294Z,33.6
2023-02-11T05:58:00.618Z,33.6
2023-02-11T05:59:00.309Z,33.6
2023-02-11T06:00:00.318Z,37.4
2023-02-11T06:01:00.327Z,37.4
2023-02-11T06:02:00.400Z,37.4
2023-02-11T06:03:00.360Z,37.4
2023-02-11T06:04:00.353Z,37.4
2023-02-11T06:05:00.286Z,34.4
2023-02-11T06:06:00.308Z,34.4
2023-02-11T06:07:00.314Z,34.4
2023-02-11T06:08:00.328Z,34.4
2023-02-11T06:09:00.417Z,34.4
2023-02-11T06:10:00.354Z,35.0
2023-02-11T06:11:00.297Z,35.0
2023-02-11T06:12:00.309Z,35.0
2023-02-11T06:13:01.060Z,35.0
2023-02-11T06:14:00.552Z,35.0
2023-02-11T06:15:00.278Z,37.7
2023-02-11T06:16:01.636Z,37.7
2023-02-11T06:17:00.457Z,37.7
2023-02-11T06:18:00.295Z,37.7
2023-02-11T06:19:00.331Z,37.7
2023-02-11T06:20:00.279Z,38.0
2023-02-11T06:21:00.341Z,38.0
2023-02-11T06:22:00.316Z,38.0
2023-02-11T06:23:00.306Z,38.0
2023-02-11T06:24:00.320Z,38.0
2023-02-11T06:25:02.087Z,38.1
2023-02-11T06:26:02.495Z,38.1
2023-02-11T06:27:01.751Z,38.1
2023-02-11T06:28:00.387Z,38.1
2023-02-11T06:29:00.601Z,38.1
2023-02-11T06:30:00.342Z,37.6
2023-02-11T06:31:04.909Z,37.6
2023-02-11T06:32:00.599Z,37.6
2023-02-11T06:33:00.293Z,37.6
2023-02-11T06:34:00.295Z,37.6
2023-02-11T06:35:00.350Z,35.0
2023-02-11T06:36:01.061Z,35.0
2023-02-11T06:37:00.331Z,35.0
2023-02-11T06:38:00.657Z,35.0
2023-02-11T06:39:00.398Z,35.0
2023-02-11T06:40:00.282Z,38.2
2023-02-11T06:41:00.288Z,38.2
2023-02-11T06:42:00.381Z,38.2
2023-02-11T06:43:00.322Z,38.2
2023-02-11T06:44:00.403Z,38.2
2023-02-11T06:45:00.317Z,37.3
2023-02-11T06:46:00.282Z,37.3
2023-02-11T06:47:00.321Z,37.3
2023-02-11T06:48:00.336Z,37.3
2023-02-11T06:49:00.286Z,37.3
2023-02-11T06:50:00.297Z,36.9
2023-02-11T06:51:01.672Z,36.9
2023-02-11T06:52:00.354Z,36.9
2023-02-11T06:53:00.552Z,36.9
2023-02-11T06:54:00.322Z,36.9
2023-02-11T06:55:00.303Z,37.4
2023-02-11T06:56:02.942Z,37.4
2023-02-11T06:57:00.331Z,37.4
2023-02-11T06:58:00.426Z,37.4
2023-02-11T06:59:00.304Z,37.4
2023-02-11T07:00:00.349Z,36.3
2023-02-11T07:01:04.635Z,36.3
2023-02-11T07:02:00.398Z,36.3
2023-02-11T07:03:00.416Z,36.3
2023-02-11T07:04:00.306Z,36.3
2023-02-11T07:05:00.304Z,44.1
2023-02-11T07:06:00.558Z,44.1
2023-02-11T07:07:00.424Z,44.1
2023-02-11T07:08:00.307Z,44.1
2023-02-11T07:09:00.311Z,44.1
2023-02-11T07:10:00.493Z,36.0
2023-02-11T07:11:00.639Z,36.0
2023-02-11T07:12:00.374Z,36.0
2023-02-11T07:13:01.008Z,36.0
2023-02-11T07:14:04.135Z,38.7
2023-02-11T07:15:00.331Z,38.7
2023-02-11T07:16:02.889Z,38.7
2023-02-11T07:17:00.363Z,38.7
2023-02-11T07:18:00.295Z,38.7
2023-02-11T07:19:00.317Z,35.6
2023-02-11T07:20:00.333Z,35.6
2023-02-11T07:21:05.721Z,35.6
2023-02-11T07:22:00.316Z,35.6
2023-02-11T07:23:00.303Z,35.6
2023-02-11T07:24:00.516Z,42.7
2023-02-11T07:25:00.297Z,42.7
2023-02-11T07:26:05.259Z,42.7
2023-02-11T07:27:00.352Z,42.7
2023-02-11T07:28:00.560Z,42.7
2023-02-11T07:29:00.733Z,46.6
2023-02-11T07:30:00.334Z,46.6
2023-02-11T07:31:09.479Z,46.6
2023-02-11T07:32:00.340Z,46.6
2023-02-11T07:33:00.321Z,46.6
2023-02-11T07:34:01.019Z,37.3
2023-02-11T07:35:00.431Z,37.3
2023-02-11T07:36:00.566Z,37.3
2023-02-11T07:37:00.300Z,37.3
2023-02-11T07:38:00.305Z,37.3
2023-02-11T07:39:00.331Z,40.8
2023-02-11T07:40:00.324Z,40.8
2023-02-11T07:41:02.576Z,40.8
2023-02-11T07:42:00.301Z,40.8
2023-02-11T07:43:00.291Z,40.8
2023-02-11T07:44:02.205Z,35.0
2023-02-11T07:45:00.350Z,35.0
2023-02-11T07:46:02.901Z,35.0
2023-02-11T07:47:00.327Z,35.0
2023-02-11T07:48:00.305Z,35.0
2023-02-11T07:49:00.529Z,55.5
2023-02-11T07:50:00.324Z,55.5
2023-02-11T07:51:10.105Z,55.5
2023-02-11T07:52:00.305Z,55.5
2023-02-11T07:53:01.658Z,55.5
2023-02-11T07:54:00.337Z,39.2
2023-02-11T07:55:00.695Z,39.2
2023-02-11T07:56:01.739Z,39.2
2023-02-11T07:57:00.292Z,39.2
2023-02-11T07:58:00.346Z,39.2
2023-02-11T07:59:01.626Z,38.6
2023-02-11T08:00:00.404Z,38.6
2023-02-11T08:01:02.256Z,38.6
2023-02-11T08:02:00.381Z,38.6
2023-02-11T08:03:00.314Z,38.6
2023-02-11T08:04:01.662Z,33.8
2023-02-11T08:05:00.304Z,33.8
2023-02-11T08:06:11.882Z,33.8
2023-02-11T08:07:00.296Z,33.8
2023-02-11T08:08:00.294Z,33.8
2023-02-11T08:09:06.273Z,34.2
2023-02-11T08:10:00.306Z,34.2
2023-02-11T08:11:09.282Z,34.2
2023-02-11T08:12:00.339Z,34.2
2023-02-11T08:13:00.287Z,34.2
2023-02-11T08:14:00.686Z,39.4
2023-02-11T08:15:00.345Z,39.4
2023-02-11T08:16:00.385Z,39.4
2023-02-11T08:17:00.286Z,39.4
2023-02-11T08:18:00.308Z,39.4
2023-02-11T08:19:03.175Z,42.4
2023-02-11T08:20:00.303Z,42.4
2023-02-11T08:21:08.695Z,42.4
2023-02-11T08:22:00.290Z,42.4
2023-02-11T08:23:00.276Z,42.4
2023-02-11T08:24:01.304Z,39.9
2023-02-11T08:25:00.286Z,39.9
2023-02-11T08:26:02.440Z,39.9
2023-02-11T08:27:00.365Z,39.9
2023-02-11T08:28:00.320Z,39.9
2023-02-11T08:29:04.634Z,34.8
2023-02-11T08:30:00.352Z,34.8
2023-02-11T08:31:05.290Z,34.8
2023-02-11T08:32:00.394Z,34.8
2023-02-11T08:33:00.615Z,34.8
2023-02-11T08:34:00.658Z,40.0
2023-02-11T08:35:00.433Z,40.0
2023-02-11T08:36:00.686Z,40.0
2023-02-11T08:37:00.295Z,40.0
2023-02-11T08:38:00.344Z,40.0
2023-02-11T08:39:17.505Z,34.8
2023-02-11T08:40:00.292Z,34.8
2023-02-11T08:41:00.370Z,34.8
2023-02-11T08:42:00.389Z,34.8
2023-02-11T08:43:00.270Z,34.8
2023-02-11T08:44:00.899Z,34.6
2023-02-11T08:45:00.322Z,34.6
2023-02-11T08:46:02.362Z,34.6
2023-02-11T08:47:00.335Z,34.6
2023-02-11T08:48:00.293Z,34.6
2023-02-11T08:49:00.272Z,34.7
2023-02-11T08:50:00.281Z,34.7
2023-02-11T08:51:05.956Z,34.7
2023-02-11T08:52:00.774Z,34.7
2023-02-11T08:53:00.277Z,34.7
2023-02-11T08:54:00.748Z,33.3
2023-02-11T08:55:00.288Z,33.3
2023-02-11T08:56:00.367Z,33.3
2023-02-11T08:57:00.331Z,33.3
2023-02-11T08:58:00.362Z,33.3
2023-02-11T08:59:00.387Z,34.3
2023-02-11T09:00:00.548Z,34.3
2023-02-11T09:01:00.377Z,34.3
2023-02-11T09:02:00.303Z,34.3
2023-02-11T09:03:00.318Z,34.3
2023-02-11T09:04:00.317Z,38.6
2023-02-11T09:05:00.289Z,38.6
2023-02-11T09:06:04.466Z,38.6
2023-02-11T09:07:00.287Z,38.6
2023-02-11T09:08:00.296Z,38.6
2023-02-11T09:09:00.898Z,35.9
2023-02-11T09:10:00.294Z,35.9
2023-02-11T09:11:00.547Z,35.9
2023-02-11T09:12:00.306Z,35.9
2023-02-11T09:13:00.368Z,35.9
2023-02-11T09:14:01.408Z,35.4
2023-02-11T09:15:00.367Z,35.4
2023-02-11T09:16:03.652Z,35.4
2023-02-11T09:17:00.407Z,35.4
2023-02-11T09:18:00.948Z,35.4
2023-02-11T09:19:01.854Z,33.3
2023-02-11T09:20:00.296Z,33.3
2023-02-11T09:21:06.797Z,33.3
2023-02-11T09:22:00.496Z,33.3
2023-02-11T09:23:00.296Z,33.3
2023-02-11T09:24:00.483Z,32.3
2023-02-11T09:25:00.309Z,32.3
2023-02-11T09:26:09.718Z,32.3
2023-02-11T09:27:00.286Z,32.3
2023-02-11T09:28:00.327Z,32.3
2023-02-11T09:29:01.250Z,31.0
2023-02-11T09:30:00.302Z,31.0
2023-02-11T09:31:09.961Z,31.0
2023-02-11T09:32:00.566Z,31.0
2023-02-11T09:33:01.449Z,31.0
2023-02-11T09:34:03.462Z,32.3
2023-02-11T09:35:00.308Z,32.3
2023-02-11T09:36:00.859Z,32.3
2023-02-11T09:37:00.573Z,32.3
2023-02-11T09:38:00.460Z,32.3
2023-02-11T09:39:01.114Z,30.8
2023-02-11T09:40:00.320Z,30.8
2023-02-11T09:41:00.373Z,30.8
2023-02-11T09:42:11.272Z,30.8
2023-02-11T09:43:11.267Z,30.8
2023-02-11T09:44:04.987Z,30.4
2023-02-11T09:45:02.278Z,30.4
2023-02-11T09:46:00.776Z,30.4
2023-02-11T09:47:03.719Z,30.4
2023-02-11T09:48:06.266Z,30.4
2023-02-11T09:49:01.695Z,28.8
2023-02-11T09:50:04.888Z,28.8
2023-02-11T09:51:02.904Z,28.8
2023-02-11T09:52:06.798Z,28.8
2023-02-11T09:53:03.556Z,28.8
2023-02-11T09:54:06.441Z,29.0
2023-02-11T09:55:03.917Z,29.0
2023-02-11T09:56:08.476Z,29.0
2023-02-11T09:57:00.372Z,29.0
2023-02-11T09:58:03.962Z,29.0
2023-02-11T09:59:00.336Z,29.6
2023-02-11T10:00:10.836Z,29.6
2023-02-11T10:01:13.309Z,29.6
2023-02-11T10:02:08.653Z,29.6
2023-02-11T10:03:17.200Z,29.6
2023-02-11T10:04:13.049Z,26.7
2023-02-11T10:05:20.214Z,26.7
2023-02-11T10:06:17.392Z,26.7
2023-02-11T10:07:10.400Z,26.7
2023-02-11T10:08:08.048Z,26.7
2023-02-11T10:09:20.218Z,24.8
2023-02-11T10:10:06.506Z,24.8
2023-02-11T10:11:19.994Z,24.8
2023-02-11T10:12:07.092Z,24.8
2023-02-11T10:13:01.312Z,24.8
2023-02-11T10:14:15.083Z,28.1
2023-02-11T10:15:11.313Z,28.1
2023-02-11T10:16:10.548Z,28.1
2023-02-11T10:17:14.750Z,28.1
2023-02-11T10:18:17.519Z,28.1
2023-02-11T10:19:08.398Z,23.6
2023-02-11T10:20:11.466Z,23.6
2023-02-11T10:21:11.407Z,23.6
2023-02-11T10:22:15.892Z,23.6
2023-02-11T10:23:09.134Z,23.6
2023-02-11T10:24:03.454Z,25.0
2023-02-11T10:25:15.390Z,25.0
2023-02-11T10:26:00.515Z,25.0
2023-02-11T10:27:05.538Z,25.0
2023-02-11T10:28:10.424Z,25.0
2023-02-11T10:29:10.250Z,24.4
2023-02-11T10:30:14.954Z,24.4
2023-02-11T10:31:05.910Z,24.4
2023-02-11T10:32:06.384Z,24.4
2023-02-11T10:33:20.297Z,24.4
2023-02-11T10:34:11.406Z,25.5
2023-02-11T10:35:09.184Z,25.5
2023-02-11T10:36:00.333Z,25.5
2023-02-11T10:37:00.313Z,25.5
2023-02-11T10:38:00.299Z,25.5
2023-02-11T10:39:10.012Z,25.2
2023-02-11T10:40:00.304Z,25.2
2023-02-11T10:41:00.343Z,25.2
2023-02-11T10:42:06.116Z,25.2
2023-02-11T10:43:03.489Z,25.2
2023-02-11T10:44:00.576Z,27.1
2023-02-11T10:45:03.756Z,27.1
2023-02-11T10:46:03.584Z,27.1
2023-02-11T10:47:08.218Z,27.1
2023-02-11T10:48:03.694Z,27.1
2023-02-11T10:49:00.323Z,26.2
2023-02-11T10:50:00.306Z,26.2
2023-02-11T10:51:20.238Z,26.2
2023-02-11T10:52:12.712Z,26.2
2023-02-11T10:53:18.612Z,26.2
2023-02-11T10:54:03.545Z,28.8
2023-02-11T10:55:03.141Z,28.8
2023-02-11T10:56:02.171Z,28.8
2023-02-11T10:57:00.392Z,28.8
2023-02-11T10:58:01.791Z,28.8
2023-02-11T10:59:03.334Z,27.3
2023-02-11T11:00:15.351Z,27.3
2023-02-11T11:01:00.415Z,27.3
2023-02-11T11:02:14.801Z,27.3
2023-02-11T11:03:02.724Z,27.3
2023-02-11T11:04:00.386Z,33.9
2023-02-11T11:05:06.312Z,33.9
2023-02-11T11:06:02.806Z,33.9
2023-02-11T11:07:20.246Z,33.9
2023-02-11T11:08:05.985Z,33.9
2023-02-11T11:09:00.378Z,29.1
2023-02-11T11:10:04.396Z,29.1
2023-02-11T11:11:04.520Z,29.1
2023-02-11T11:12:00.343Z,29.1
2023-02-11T11:13:00.617Z,29.1
2023-02-11T11:14:01.150Z,28.4
2023-02-11T11:15:10.257Z,28.4
2023-02-11T11:16:11.296Z,28.4
2023-02-11T11:17:00.353Z,28.4
2023-02-11T11:18:20.902Z,28.4
2023-02-11T11:19:07.628Z,29.8
2023-02-11T11:20:14.478Z,29.8
2023-02-11T11:21:03.880Z,29.8
2023-02-11T11:22:00.332Z,29.8
2023-02-11T11:23:13.505Z,29.8
2023-02-11T11:24:02.154Z,28.4
2023-02-11T11:25:00.389Z,28.4
2023-02-11T11:26:11.739Z,28.4
2023-02-11T11:27:03.536Z,28.4
2023-02-11T11:28:00.522Z,28.4
2023-02-11T11:29:06.609Z,29.6
2023-02-11T11:30:00.782Z,29.6
2023-02-11T11:31:00.733Z,29.6
2023-02-11T11:32:06.160Z,29.6
2023-02-11T11:33:00.840Z,29.6
2023-02-11T11:34:12.652Z,28.1
2023-02-11T11:35:04.147Z,28.1
2023-02-11T11:36:05.085Z,28.1
2023-02-11T11:37:10.098Z,28.1
2023-02-11T11:38:04.264Z,28.1
2023-02-11T11:39:11.378Z,34.0
2023-02-11T11:40:08.180Z,34.0
2023-02-11T11:41:12.086Z,34.0
2023-02-11T11:42:04.262Z,34.0
2023-02-11T11:43:12.971Z,34.0
2023-02-11T11:44:01.836Z,31.9
2023-02-11T11:45:02.812Z,31.9
2023-02-11T11:46:00.341Z,31.9
2023-02-11T11:47:11.026Z,31.9
2023-02-11T11:48:12.951Z,31.9
2023-02-11T11:49:20.225Z,28.2
2023-02-11T11:50:21.244Z,28.2
2023-02-11T11:51:03.707Z,28.2
2023-02-11T11:52:20.233Z,28.2
2023-02-11T11:53:06.227Z,28.2
2023-02-11T11:54:05.222Z,29.8
2023-02-11T11:55:14.340Z,29.8
2023-02-11T11:56:04.821Z,29.8
2023-02-11T11:57:09.759Z,29.8
2023-02-11T11:58:00.623Z,29.8
2023-02-11T11:59:05.560Z,32.9
2023-02-11T12:00:00.318Z,32.9
2023-02-11T12:01:20.268Z,32.9
2023-02-11T12:02:20.252Z,32.9
2023-02-11T12:03:10.299Z,32.9
2023-02-11T12:04:03.520Z,29.0
2023-02-11T12:05:00.346Z,29.0
2023-02-11T12:06:17.841Z,29.0
2023-02-11T12:07:20.241Z,29.0
2023-02-11T12:08:10.577Z,29.0
2023-02-11T12:09:13.473Z,31.9
2023-02-11T12:10:13.505Z,31.9
2023-02-11T12:11:08.315Z,31.9
2023-02-11T12:12:11.234Z,31.9
2023-02-11T12:13:15.101Z,29.1
2023-02-11T12:14:13.512Z,29.1
2023-02-11T12:15:20.207Z,29.1
2023-02-11T12:16:11.490Z,29.1
2023-02-11T12:17:10.249Z,29.1
2023-02-11T12:18:00.271Z,29.1
2023-02-11T12:19:10.278Z,27.6
2023-02-11T12:20:20.236Z,27.6
2023-02-11T12:21:16.457Z,27.6
2023-02-11T12:22:10.857Z,27.6
2023-02-11T12:23:17.738Z,31.1
2023-02-11T12:24:20.208Z,31.1
2023-02-11T12:25:08.801Z,31.1
2023-02-11T12:26:07.037Z,31.1
2023-02-11T12:27:07.368Z,31.1
2023-02-11T12:28:20.349Z,32.0
2023-02-11T12:29:20.195Z,32.0
2023-02-11T12:30:11.272Z,32.0
2023-02-11T12:31:12.178Z,32.0
2023-02-11T12:32:12.614Z,32.0
2023-02-11T12:33:20.219Z,27.9
2023-02-11T12:34:20.063Z,27.9
2023-02-11T12:35:20.215Z,27.9
2023-02-11T12:36:07.045Z,27.9
2023-02-11T12:37:16.017Z,27.9
2023-02-11T12:38:17.639Z,27.4
2023-02-11T12:39:10.854Z,27.4
2023-02-11T12:40:12.552Z,27.4
2023-02-11T12:41:00.338Z,27.4
2023-02-11T12:42:13.769Z,27.4
2023-02-11T12:43:17.730Z,26.8
2023-02-11T12:44:00.331Z,26.8
2023-02-11T12:45:10.229Z,26.8
2023-02-11T12:46:08.084Z,26.8
2023-02-11T12:47:20.224Z,26.8
2023-02-11T12:48:11.959Z,28.5
2023-02-11T12:49:06.967Z,28.5
2023-02-11T12:50:07.261Z,28.5
2023-02-11T12:51:06.738Z,28.5
2023-02-11T12:52:20.253Z,28.5
2023-02-11T12:53:16.271Z,27.4
2023-02-11T12:54:19.782Z,27.4
2023-02-11T12:55:08.077Z,27.4
2023-02-11T12:56:09.763Z,27.4
2023-02-11T12:57:16.414Z,27.4
2023-02-11T12:58:00.813Z,27.4
2023-02-11T12:59:04.222Z,27.6
2023-02-11T13:00:20.195Z,27.6
2023-02-11T13:01:04.734Z,27.6
2023-02-11T13:02:05.445Z,27.6
2023-02-11T13:03:12.733Z,26.9
2023-02-11T13:04:10.252Z,26.9
2023-02-11T13:05:07.207Z,26.9
2023-02-11T13:06:06.807Z,26.9
2023-02-11T13:07:07.796Z,26.9
2023-02-11T13:08:09.115Z,25.9
2023-02-11T13:09:04.716Z,25.9
2023-02-11T13:10:08.077Z,25.9
2023-02-11T13:11:04.902Z,25.9
2023-02-11T13:12:03.321Z,25.9
2023-02-11T13:13:03.079Z,25.9
2023-02-11T13:14:08.493Z,27.1
2023-02-11T13:15:06.591Z,27.1
2023-02-11T13:16:04.318Z,27.1
2023-02-11T13:17:03.192Z,27.1
2023-02-11T13:18:19.273Z,27.9